MDT,Max TemperatureF,Mean TemperatureF,Min TemperatureF,Max Dew PointF,MeanDew PointF,Min DewpointF,Max Humidity, Mean Humidity, Min Humidity, Max Sea Level PressureIn, Mean Sea Level PressureIn, Min Sea Level PressureIn, Max VisibilityMiles, Mean VisibilityMiles, Min VisibilityMiles, Max Wind SpeedMPH, Mean Wind SpeedMPH, Max Gust SpeedMPH,PrecipitationIn, CloudCover, Events, WindDirDegrees
2013-10-1,71,55,39,33,29,24,70,45,19,29.96,29.86,29.79,10,10,10,26,9,35,0.00,0,,244
2013-10-2,69,54,38,32,28,23,70,44,17,29.94,29.81,29.69,10,10,10,21,6,26,0.00,2,,209
2013-10-3,52,41,29,36,32,28,100,78,56,29.99,29.87,29.67,10,5,0,29,13,33,0.44,7,Fog-Rain-Snow,310
2013-10-4,29,26,23,28,24,19,92,87,81,30.41,30.15,29.90,10,3,0,25,16,32,0.07,8,Fog-Snow,348
2013-10-5,36,30,23,29,23,19,88,79,70,30.44,30.39,30.30,10,10,9,26,15,35,T,3,Snow,254
2013-10-6,52,41,29,34,28,23,76,61,46,30.40,30.34,30.23,10,10,10,24,9,30,0.00,0,,235
2013-10-7,65,49,32,32,29,25,82,54,25,30.25,30.05,29.83,10,10,10,29,11,35,0.00,0,,229
2013-10-8,64,50,36,31,28,22,76,48,20,29.81,29.74,29.65,10,10,10,37,16,46,0.00,0,,237
2013-10-9,57,44,30,38,34,29,92,70,47,29.91,29.85,29.76,10,10,10,23,8,25,0.00,2,,59
2013-10-10,47,41,34,39,37,34,100,85,70,29.81,29.70,29.56,10,8,2,28,9,35,0.32,6,Rain,241
2013-10-11,48,40,31,36,33,26,96,78,60,30.10,29.85,29.64,10,8,3,28,15,36,0.26,7,Rain-Snow,258
2013-10-12,52,40,27,33,28,24,85,62,39,30.14,30.08,30.00,10,10,10,22,6,29,0.00,2,,229
2013-10-13,58,45,31,38,33,27,89,64,38,30.07,29.96,29.86,10,10,9,17,5,22,0.08,5,Rain-Thunderstorm,102
2013-10-14,39,33,27,38,30,24,100,88,75,30.33,30.07,29.81,10,6,0,21,13,25,0.04,8,Fog-Rain-Snow,334
2013-10-15,31,28,25,25,22,20,92,78,63,30.40,30.32,30.23,10,10,10,13,6,15,0.00,7,,46
2013-10-16,45,35,24,26,23,19,81,61,40,30.25,30.16,30.05,10,10,10,25,13,33,0.00,1,,244
2013-10-17,44,35,26,32,27,22,100,73,45,30.13,30.07,29.98,10,6,1,24,9,29,0.03,7,Snow,340
2013-10-18,41,33,24,25,22,18,92,66,40,30.31,30.20,30.12,10,8,1,22,11,28,0.01,4,Snow,292
2013-10-19,53,42,31,24,21,19,59,45,30,30.15,30.02,29.92,10,10,10,33,18,44,0.00,0,,251
2013-10-20,44,36,27,32,28,23,92,69,45,30.17,30.03,29.87,10,9,2,22,10,26,T,6,Rain-Snow,314
2013-10-21,52,39,25,29,25,22,92,61,30,30.25,30.17,30.12,10,10,10,23,12,29,0.00,2,,252
2013-10-22,59,48,36,27,26,24,64,46,28,30.25,30.14,30.07,10,10,10,22,12,28,0.00,0,,248
2013-10-23,60,43,26,29,25,22,81,52,23,30.24,30.14,30.06,10,10,10,16,5,21,0.00,0,,280
2013-10-24,61,42,23,28,23,20,88,54,20,30.32,30.21,30.12,10,10,10,14,3,17,0.00,0,,304
2013-10-25,62,42,22,28,22,17,88,54,19,30.29,30.21,30.13,10,10,10,15,5,21,0.00,0,,309
2013-10-26,60,42,24,29,25,22,92,58,23,30.40,30.26,30.09,10,10,10,17,8,22,0.00,0,,273
2013-10-27,60,48,36,24,21,17,59,39,19,30.06,29.89,29.74,10,10,10,26,12,36,0.00,2,,242
2013-10-28,44,35,26,34,29,23,92,73,54,29.92,29.84,29.72,10,10,6,28,17,37,0.02,5,Rain,52
2013-10-29,45,35,24,34,26,23,92,69,45,29.99,29.91,29.86,10,8,0,28,8,35,0.05,6,Fog-Snow,90
2013-10-30,40,34,27,32,27,23,92,73,54,29.97,29.89,29.83,10,8,1,25,17,33,T,6,Rain-Snow,252
2013-10-31,43,35,27,28,25,22,84,68,51,30.01,29.95,29.90,10,10,10,39,21,47,0.00,5,,250